createdAt,value
2023-03-06T00:00:56.325Z,9.60
2023-03-06T00:03:27.894Z,9.60
2023-03-06T00:05:57.315Z,9.60
2023-03-06T00:08:26.653Z,9.60
2023-03-06T00:10:56.171Z,9.60
2023-03-06T00:13:24.905Z,9.60
2023-03-06T00:15:53.172Z,9.60
2023-03-06T00:18:21.227Z,9.60
2023-03-06T00:20:50.650Z,9.60
2023-03-06T00:23:18.708Z,9.60
2023-03-06T00:25:47.602Z,9.50
2023-03-06T00:28:17.397Z,9.50
2023-03-06T00:30:47.453Z,9.50
2023-03-06T00:33:15.483Z,9.40
2023-03-06T00:35:43.852Z,9.40
2023-03-06T00:38:13.806Z,9.40
2023-03-06T00:40:41.953Z,9.30
2023-03-06T00:43:10.062Z,9.30
2023-03-06T00:45:38.186Z,9.30
2023-03-06T00:50:35.227Z,9.20
2023-03-06T00:53:03.308Z,9.20
2023-03-06T00:55:33.542Z,9.20
2023-03-06T00:58:01.700Z,9.20
2023-03-06T01:00:29.723Z,9.10
2023-03-06T01:02:57.770Z,9.10
2023-03-06T01:05:26.532Z,9.10
2023-03-06T01:07:54.799Z,9.10
2023-03-06T01:10:23.143Z,9.10
2023-03-06T01:12:52.528Z,9.10
2023-03-06T01:15:21.143Z,9.10
2023-03-06T01:17:49.450Z,9.20
2023-03-06T01:20:19.049Z,9.20
2023-03-06T01:22:47.166Z,9.20
2023-03-06T01:25:15.214Z,9.20
2023-03-06T01:27:43.253Z,9.20
2023-03-06T01:30:13.874Z,9.20
2023-03-06T01:32:42.061Z,9.20
2023-03-06T01:35:11.080Z,9.10
2023-03-06T01:37:40.443Z,9.10
2023-03-06T01:40:11.207Z,9.10
2023-03-06T01:42:39.254Z,9.00
2023-03-06T01:45:29.253Z,9.00
2023-03-06T01:47:58.645Z,9.00
2023-03-06T01:50:26.999Z,8.90
2023-03-06T01:52:59.227Z,8.90
2023-03-06T01:55:29.411Z,8.90
2023-03-06T01:58:00.293Z,8.90
2023-03-06T02:00:30.241Z,8.80
2023-03-06T02:03:04.682Z,8.80
2023-03-06T02:05:33.100Z,8.80
2023-03-06T02:08:02.080Z,8.80
2023-03-06T02:10:30.161Z,8.80
2023-03-06T02:12:58.476Z,8.80
2023-03-06T02:15:28.359Z,8.80
2023-03-06T02:17:57.288Z,8.90
2023-03-06T02:20:33.214Z,8.90
2023-03-06T02:23:08.045Z,8.90
2023-03-06T02:25:39.706Z,8.90
2023-03-06T02:28:09.344Z,8.90
2023-03-06T02:30:38.751Z,8.90
2023-03-06T02:33:07.418Z,8.90
2023-03-06T02:35:38.443Z,8.90
2023-03-06T02:38:11.595Z,8.90
2023-03-06T02:40:43.055Z,8.90
2023-03-06T02:43:13.518Z,8.90
2023-03-06T02:45:45.259Z,8.90
2023-03-06T02:48:14.408Z,8.90
2023-03-06T02:50:44.611Z,8.90
2023-03-06T02:53:14.588Z,8.90
2023-03-06T02:55:44.031Z,8.90
2023-03-06T02:58:12.052Z,8.90
2023-03-06T03:00:40.701Z,8.90
2023-03-06T03:03:08.863Z,8.80
2023-03-06T03:05:36.963Z,8.80
2023-03-06T03:08:05.349Z,8.80
2023-03-06T03:10:33.422Z,8.80
2023-03-06T03:13:03.705Z,8.80
2023-03-06T03:15:31.818Z,8.80
2023-03-06T03:17:59.972Z,8.80
2023-03-06T03:20:28.012Z,8.80
2023-03-06T03:22:56.768Z,8.80
2023-03-06T03:25:26.508Z,8.70
2023-03-06T03:27:54.693Z,8.70
2023-03-06T03:30:24.441Z,8.70
2023-03-06T03:32:52.454Z,8.70
2023-03-06T03:35:20.662Z,8.70
2023-03-06T03:37:48.767Z,8.60
2023-03-06T03:40:16.817Z,8.60
2023-03-06T03:42:44.928Z,8.60
2023-03-06T03:45:13.190Z,8.60
2023-03-06T03:47:42.635Z,8.50
2023-03-06T03:50:12.210Z,8.50
2023-03-06T03:52:40.353Z,8.50
2023-03-06T03:55:09.485Z,8.50
2023-03-06T03:57:39.203Z,8.40
2023-03-06T04:00:08.626Z,8.40
2023-03-06T04:02:36.643Z,8.40
2023-03-06T04:05:07.006Z,8.40
2023-03-06T04:07:35.074Z,8.30
2023-03-06T04:10:03.098Z,8.30
2023-03-06T04:12:31.110Z,8.30
2023-03-06T04:14:59.286Z,8.30
2023-03-06T04:17:27.643Z,8.20
2023-03-06T04:19:55.689Z,8.20
2023-03-06T04:22:25.057Z,8.10
2023-03-06T04:24:53.124Z,8.10
2023-03-06T04:27:21.270Z,8.00
2023-03-06T04:29:49.358Z,8.00
2023-03-06T04:32:18.723Z,7.90
2023-03-06T04:34:48.433Z,7.80
2023-03-06T04:37:20.554Z,7.80
2023-03-06T04:39:50.173Z,7.70
2023-03-06T04:42:18.573Z,7.70
2023-03-06T04:44:46.782Z,7.60
2023-03-06T04:47:15.053Z,7.60
2023-03-06T04:49:43.129Z,7.60
2023-03-06T04:52:11.346Z,7.50
2023-03-06T04:54:39.422Z,7.40
2023-03-06T04:57:08.829Z,7.40
2023-03-06T04:59:39.097Z,7.40
2023-03-06T05:02:07.316Z,7.40
2023-03-06T05:04:35.405Z,7.40
2023-03-06T05:07:03.426Z,7.40
2023-03-06T05:09:31.474Z,7.40
2023-03-06T05:11:59.492Z,7.40
2023-03-06T05:14:30.485Z,7.50
2023-03-06T05:16:58.663Z,7.50
2023-03-06T05:19:26.716Z,7.60
2023-03-06T05:21:54.738Z,7.60
2023-03-06T05:24:22.769Z,7.70
2023-03-06T05:26:50.791Z,7.80
2023-03-06T05:29:18.838Z,7.90
2023-03-06T05:31:48.377Z,7.90
2023-03-06T05:34:16.990Z,7.80
2023-03-06T05:36:45.061Z,7.80
2023-03-06T05:39:13.223Z,7.70
2023-03-06T05:41:41.245Z,7.70
2023-03-06T05:44:09.408Z,7.70
2023-03-06T05:46:38.105Z,7.70
2023-03-06T05:49:07.494Z,7.70
2023-03-06T05:51:35.526Z,7.70
2023-03-06T05:54:03.566Z,7.70
2023-03-06T05:56:31.585Z,7.70
2023-03-06T05:58:59.604Z,7.70
2023-03-06T06:01:28.498Z,7.70
2023-03-06T06:03:56.577Z,7.70
2023-03-06T06:06:25.953Z,7.70
2023-03-06T06:08:54.002Z,7.70
2023-03-06T06:11:22.025Z,7.60
2023-03-06T06:13:50.399Z,7.60
2023-03-06T06:16:19.178Z,7.60
2023-03-06T06:18:47.309Z,7.60
2023-03-06T06:21:15.974Z,7.60
2023-03-06T06:23:45.405Z,7.70
2023-03-06T06:26:13.468Z,7.70
2023-03-06T06:28:41.555Z,7.70
2023-03-06T06:31:10.901Z,7.80
2023-03-06T06:33:38.982Z,7.80
2023-03-06T06:36:15.400Z,7.80
2023-03-06T06:38:44.961Z,7.80
2023-03-06T06:41:36.033Z,7.80
2023-03-06T06:44:01.359Z,7.80
2023-03-06T06:47:10.811Z,7.90
2023-03-06T06:49:18.436Z,7.90
2023-03-06T06:51:46.903Z,7.90
2023-03-06T06:54:16.306Z,7.90
2023-03-06T06:56:44.363Z,8.00
2023-03-06T06:59:17.185Z,8.00
2023-03-06T07:01:45.830Z,8.00
2023-03-06T07:04:14.551Z,8.10
2023-03-06T07:06:43.055Z,8.10
2023-03-06T07:09:12.074Z,8.10
2023-03-06T07:11:42.418Z,8.20
2023-03-06T07:14:10.510Z,8.30
2023-03-06T07:16:38.645Z,8.30
2023-03-06T07:19:06.929Z,8.40
2023-03-06T07:21:35.386Z,8.50
2023-03-06T07:24:03.462Z,8.60
2023-03-06T07:26:34.518Z,8.80
2023-03-06T07:29:05.498Z,8.90
2023-03-06T07:31:33.615Z,9.00
2023-03-06T07:34:04.709Z,9.20
2023-03-06T07:36:33.466Z,9.30
2023-03-06T07:39:01.630Z,9.50
2023-03-06T07:41:29.691Z,9.70
2023-03-06T07:43:57.745Z,9.80
2023-03-06T07:46:27.371Z,10.00
2023-03-06T07:48:55.447Z,10.10
2023-03-06T07:51:23.679Z,10.30
2023-03-06T07:53:51.867Z,10.40
2023-03-06T07:56:19.879Z,10.50
2023-03-06T07:58:48.863Z,10.60
2023-03-06T08:03:50.103Z,10.80
2023-03-06T08:06:19.830Z,10.90
2023-03-06T08:08:49.106Z,11.00
2023-03-06T08:11:19.328Z,11.10
2023-03-06T08:13:48.768Z,11.20
2023-03-06T08:16:17.411Z,11.30
2023-03-06T08:18:46.911Z,11.50
2023-03-06T08:21:17.227Z,11.70
2023-03-06T08:23:45.778Z,11.90
2023-03-06T08:26:16.078Z,12.10
2023-03-06T08:28:44.526Z,12.30
2023-03-06T08:31:14.740Z,12.40
2023-03-06T08:33:42.823Z,12.60
2023-03-06T08:36:12.272Z,12.80
2023-03-06T08:38:40.284Z,13.00
2023-03-06T08:41:08.416Z,13.10
2023-03-06T08:43:36.477Z,13.30
2023-03-06T08:46:04.754Z,13.50
2023-03-06T08:48:32.953Z,13.70
2023-03-06T08:51:01.007Z,13.80
2023-03-06T08:53:42.008Z,13.90
2023-03-06T08:56:16.946Z,13.90
2023-03-06T08:58:45.321Z,13.90
2023-03-06T09:01:17.668Z,13.90
2023-03-06T09:03:45.854Z,14.00
2023-03-06T09:06:14.729Z,14.10
2023-03-06T09:08:44.696Z,14.30
2023-03-06T09:11:13.805Z,14.50
2023-03-06T09:13:42.068Z,14.70
2023-03-06T09:16:11.391Z,14.90
2023-03-06T09:18:39.556Z,15.00
2023-03-06T09:21:08.270Z,15.20
2023-03-06T09:23:37.103Z,15.30
2023-03-06T09:26:07.711Z,15.40
2023-03-06T09:28:38.933Z,15.60
2023-03-06T09:31:09.620Z,15.60
2023-03-06T09:33:37.971Z,15.80
2023-03-06T09:36:07.487Z,15.90
2023-03-06T09:38:35.876Z,16.00
2023-03-06T09:41:09.793Z,16.20
2023-03-06T09:43:40.746Z,16.30
2023-03-06T09:46:19.983Z,16.40
2023-03-06T09:49:02.009Z,16.60
2023-03-06T09:51:40.894Z,16.70
2023-03-06T09:54:14.376Z,16.90
2023-03-06T09:56:48.891Z,17.00
2023-03-06T09:59:21.273Z,17.10
2023-03-06T10:01:59.630Z,17.30
2023-03-06T10:04:35.786Z,17.50
2023-03-06T10:07:13.456Z,17.60
2023-03-06T10:09:49.701Z,17.80
2023-03-06T10:12:25.699Z,17.90
2023-03-06T10:15:02.928Z,18.00
2023-03-06T10:17:36.580Z,18.10
2023-03-06T10:20:16.512Z,18.20
2023-03-06T10:22:58.509Z,18.20
2023-03-06T10:25:32.509Z,18.20
2023-03-06T10:28:13.291Z,18.10
2023-03-06T10:30:47.415Z,18.10
2023-03-06T10:33:23.995Z,17.90
2023-03-06T10:35:58.551Z,17.70
2023-03-06T10:38:56.899Z,17.60
2023-03-06T10:41:53.545Z,17.40
2023-03-06T10:44:36.261Z,17.30
2023-03-06T10:48:06.728Z,17.20
2023-03-06T10:51:17.950Z,17.20
2023-03-06T10:54:24.318Z,17.20
2023-03-06T10:57:11.501Z,17.10
2023-03-06T11:00:25.485Z,17.00
2023-03-06T11:03:36.273Z,17.00
2023-03-06T11:07:05.429Z,17.00
2023-03-06T11:12:42.174Z,16.90
2023-03-06T11:15:48.405Z,16.80
2023-03-06T11:19:09.121Z,16.70
2023-03-06T11:22:10.948Z,16.60
2023-03-06T11:25:03.306Z,16.50
2023-03-06T11:27:48.620Z,16.40
2023-03-06T11:30:52.187Z,16.30
2023-03-06T11:33:29.404Z,16.30
2023-03-06T11:36:00.956Z,16.20
2023-03-06T11:38:36.741Z,16.20
2023-03-06T11:41:09.617Z,16.30
2023-03-06T11:43:49.816Z,16.40
2023-03-06T11:46:22.889Z,16.30
2023-03-06T11:48:55.313Z,16.20
2023-03-06T11:51:26.594Z,16.10
2023-03-06T11:53:55.078Z,16.00
2023-03-06T11:56:34.274Z,15.80
2023-03-06T11:59:16.098Z,15.70
2023-03-06T12:01:50.738Z,15.60
2023-03-06T12:04:42.464Z,15.50
2023-03-06T12:07:31.152Z,15.40
2023-03-06T12:10:07.076Z,15.30
2023-03-06T12:13:09.844Z,15.30
2023-03-06T12:16:08.253Z,15.20
2023-03-06T12:18:50.234Z,15.20
2023-03-06T12:21:28.807Z,15.20
2023-03-06T12:24:12.618Z,15.20
2023-03-06T12:26:53.420Z,15.20
2023-03-06T12:29:37.394Z,15.30
2023-03-06T12:32:16.844Z,15.70
2023-03-06T12:35:06.162Z,16.30
2023-03-06T12:37:47.547Z,16.50
2023-03-06T12:40:34.883Z,16.80
2023-03-06T12:43:45.553Z,17.50
2023-03-06T12:46:17.224Z,18.90
2023-03-06T12:48:49.554Z,19.70
2023-03-06T12:53:50.884Z,20.10
2023-03-06T12:56:20.808Z,19.90
2023-03-06T12:58:51.540Z,19.70
2023-03-06T13:01:42.343Z,19.80
2023-03-06T13:04:47.184Z,20.00
2023-03-06T13:07:34.964Z,19.90
2023-03-06T13:10:27.734Z,19.70
2023-03-06T13:12:57.956Z,19.90
2023-03-06T13:15:41.080Z,20.40
2023-03-06T13:18:50.894Z,20.80
2023-03-06T13:21:48.063Z,21.40
2023-03-06T13:24:19.272Z,21.70
2023-03-06T13:26:57.472Z,21.90
2023-03-06T13:29:51.118Z,22.00
2023-03-06T13:32:28.897Z,21.80
2023-03-06T13:34:56.986Z,21.50
2023-03-06T13:37:50.834Z,21.30
2023-03-06T13:40:37.121Z,21.40
2023-03-06T13:43:22.230Z,21.60
2023-03-06T13:45:51.562Z,21.70
2023-03-06T13:48:43.705Z,21.70
2023-03-06T13:51:23.214Z,21.50
2023-03-06T13:54:12.558Z,21.20
2023-03-06T13:57:17.040Z,20.90
2023-03-06T14:00:22.387Z,20.50
2023-03-06T14:03:04.770Z,20.20
2023-03-06T14:05:42.575Z,20.10
2023-03-06T14:08:15.637Z,20.10
2023-03-06T14:10:46.527Z,20.10
2023-03-06T14:13:23.099Z,20.20
2023-03-06T14:15:54.155Z,20.20
2023-03-06T14:18:24.816Z,20.10
2023-03-06T14:20:57.767Z,20.10
2023-03-06T14:23:29.052Z,20.40
2023-03-06T14:26:06.315Z,20.50
2023-03-06T14:28:36.093Z,20.50
2023-03-06T14:31:07.131Z,20.40
2023-03-06T14:33:43.215Z,20.20
2023-03-06T14:36:16.088Z,20.10
2023-03-06T14:38:47.818Z,20.00
2023-03-06T14:41:25.041Z,20.20
2023-03-06T14:43:53.567Z,20.50
2023-03-06T14:46:23.749Z,20.70
2023-03-06T14:48:51.797Z,20.90
2023-03-06T14:51:22.115Z,20.80
2023-03-06T14:53:51.866Z,21.00
2023-03-06T14:56:22.236Z,21.10
2023-03-06T14:58:56.295Z,21.00
2023-03-06T15:01:31.396Z,20.80
2023-03-06T15:04:01.140Z,20.70
2023-03-06T15:06:34.407Z,20.60
2023-03-06T15:09:07.733Z,20.60
2023-03-06T15:12:01.036Z,20.50
2023-03-06T15:14:33.677Z,20.20
2023-03-06T15:17:23.664Z,20.10
2023-03-06T15:19:54.482Z,20.10
2023-03-06T15:22:28.890Z,20.10
2023-03-06T15:25:23.425Z,20.10
2023-03-06T15:27:53.245Z,20.20
2023-03-06T15:30:28.359Z,20.40
2023-03-06T15:33:24.816Z,20.60
2023-03-06T15:35:54.968Z,20.80
2023-03-06T15:38:26.364Z,20.80
2023-03-06T15:40:59.388Z,20.50
2023-03-06T15:43:28.520Z,20.00
2023-03-06T15:46:00.893Z,19.50
2023-03-06T15:48:30.410Z,19.10
2023-03-06T15:50:58.491Z,18.70
2023-03-06T15:53:26.608Z,18.30
2023-03-06T15:55:54.679Z,18.00
2023-03-06T15:58:26.778Z,17.70
2023-03-06T16:00:54.878Z,17.30
2023-03-06T16:03:22.918Z,17.10
2023-03-06T16:05:52.346Z,16.80
2023-03-06T16:08:20.384Z,16.60
2023-03-06T16:10:49.838Z,16.50
2023-03-06T16:13:22.991Z,16.40
2023-03-06T16:15:51.955Z,16.20
2023-03-06T16:18:20.284Z,16.10
2023-03-06T16:20:48.497Z,16.00
2023-03-06T16:23:17.999Z,15.90
2023-03-06T16:25:50.155Z,15.70
2023-03-06T16:28:18.557Z,15.50
2023-03-06T16:30:46.761Z,15.40
2023-03-06T16:33:15.028Z,15.30
2023-03-06T16:35:46.459Z,15.20
2023-03-06T16:38:15.756Z,15.00
2023-03-06T16:40:45.192Z,14.90
2023-03-06T16:43:16.088Z,14.80
2023-03-06T16:45:44.768Z,14.70
2023-03-06T16:48:17.182Z,14.60
2023-03-06T16:50:45.772Z,14.50
2023-03-06T16:53:13.922Z,14.40
2023-03-06T16:55:42.142Z,14.30
2023-03-06T16:58:11.548Z,14.20
2023-03-06T17:00:39.636Z,14.20
2023-03-06T17:03:07.909Z,14.10
2023-03-06T17:05:37.049Z,14.00
2023-03-06T17:08:05.436Z,13.90
2023-03-06T17:10:33.514Z,13.90
2023-03-06T17:13:01.708Z,13.80
2023-03-06T17:15:31.149Z,13.60
2023-03-06T17:17:59.503Z,13.60
2023-03-06T17:20:27.544Z,13.50
2023-03-06T17:22:55.634Z,13.40
2023-03-06T17:25:23.688Z,13.40
2023-03-06T17:27:51.727Z,13.30
2023-03-06T17:30:19.933Z,13.20
2023-03-06T17:32:49.340Z,13.20
2023-03-06T17:35:17.535Z,13.10
2023-03-06T17:37:45.574Z,13.00
2023-03-06T17:40:15.569Z,13.00
2023-03-06T17:42:43.624Z,12.90
2023-03-06T17:45:12.463Z,12.80
2023-03-06T17:47:40.546Z,12.80
2023-03-06T17:50:11.671Z,12.70
2023-03-06T17:52:39.766Z,12.70
2023-03-06T17:55:08.922Z,12.60
2023-03-06T17:57:36.969Z,12.60
2023-03-06T18:00:05.925Z,12.50
2023-03-06T18:02:33.957Z,12.40
2023-03-06T18:05:02.188Z,12.40
2023-03-06T18:07:31.959Z,12.40
2023-03-06T18:09:59.992Z,12.30
2023-03-06T18:12:28.161Z,12.30
2023-03-06T18:14:56.264Z,12.20
2023-03-06T18:17:24.602Z,12.20
2023-03-06T18:19:53.049Z,12.20
2023-03-06T18:22:21.109Z,12.20
2023-03-06T18:24:50.642Z,12.10
2023-03-06T18:27:19.472Z,12.10
2023-03-06T18:29:47.618Z,12.10
2023-03-06T18:32:15.931Z,12.10
2023-03-06T18:34:44.047Z,12.00
2023-03-06T18:37:12.105Z,12.00
2023-03-06T18:39:40.148Z,12.00
2023-03-06T18:42:09.929Z,12.00
2023-03-06T18:44:38.054Z,11.90
2023-03-06T18:47:06.620Z,11.90
2023-03-06T18:49:34.654Z,11.90
2023-03-06T18:52:03.884Z,11.90
2023-03-06T18:54:31.928Z,11.80
2023-03-06T18:57:00.078Z,11.80
2023-03-06T18:59:29.603Z,11.80
2023-03-06T19:01:59.252Z,11.80
2023-03-06T19:04:28.196Z,11.80
2023-03-06T19:06:56.274Z,11.70
2023-03-06T19:09:24.480Z,11.70
2023-03-06T19:11:54.843Z,11.70
2023-03-06T19:14:23.061Z,11.70
2023-03-06T19:16:52.520Z,11.70
2023-03-06T19:19:20.563Z,11.70
2023-03-06T19:21:48.597Z,11.60
2023-03-06T19:24:16.641Z,11.60
2023-03-06T19:26:44.675Z,11.60
2023-03-06T19:29:12.745Z,11.60
2023-03-06T19:31:40.907Z,11.60
2023-03-06T19:34:10.396Z,11.50
2023-03-06T19:36:40.665Z,11.50
2023-03-06T19:39:09.764Z,11.50
2023-03-06T19:41:37.791Z,11.50
2023-03-06T19:44:06.288Z,11.50
2023-03-06T19:46:36.209Z,11.50
2023-03-06T19:49:11.687Z,11.40
2023-03-06T19:51:41.217Z,11.40
2023-03-06T19:54:10.348Z,11.40
2023-03-06T19:56:38.427Z,11.40
2023-03-06T19:59:06.491Z,11.40
2023-03-06T20:01:35.224Z,11.40
2023-03-06T20:04:03.800Z,11.30
2023-03-06T20:06:36.590Z,11.30
2023-03-06T20:09:08.699Z,11.30
2023-03-06T20:11:37.084Z,11.30
2023-03-06T20:14:06.454Z,11.30
2023-03-06T20:16:35.118Z,11.30
2023-03-06T20:19:03.996Z,11.30
2023-03-06T20:21:35.330Z,11.30
2023-03-06T20:24:05.040Z,11.30
2023-03-06T20:26:34.115Z,11.20
2023-03-06T20:29:02.261Z,11.20
2023-03-06T20:31:31.630Z,11.20
2023-03-06T20:34:00.645Z,11.20
2023-03-06T20:36:30.815Z,11.20
2023-03-06T20:39:02.437Z,11.20
2023-03-06T20:41:33.071Z,11.20
2023-03-06T20:44:02.781Z,11.20
2023-03-06T20:46:31.264Z,11.10
2023-03-06T20:48:59.665Z,11.10
2023-03-06T20:51:30.195Z,11.10
2023-03-06T20:53:59.004Z,11.10
2023-03-06T20:56:29.724Z,11.10
2023-03-06T20:58:59.687Z,11.10
2023-03-06T21:01:29.173Z,11.10
2023-03-06T21:03:58.181Z,11.00
2023-03-06T21:06:27.136Z,11.00
2023-03-06T21:08:55.726Z,11.00
2023-03-06T21:11:23.766Z,10.90
2023-03-06T21:13:53.167Z,10.90
2023-03-06T21:16:24.882Z,10.80
2023-03-06T21:18:55.248Z,10.80
2023-03-06T21:21:25.286Z,10.70
2023-03-06T21:23:53.546Z,10.60
2023-03-06T21:26:23.285Z,10.60
2023-03-06T21:28:51.649Z,10.50
2023-03-06T21:31:22.645Z,10.50
2023-03-06T21:33:51.579Z,10.50
2023-03-06T21:36:21.685Z,10.40
2023-03-06T21:38:51.464Z,10.40
2023-03-06T21:41:20.990Z,10.30
2023-03-06T21:43:49.026Z,10.30
2023-03-06T21:46:17.143Z,10.30
2023-03-06T21:48:46.578Z,10.20
2023-03-06T21:51:16.918Z,10.20
2023-03-06T21:53:46.343Z,10.20
2023-03-06T21:56:15.889Z,10.20
2023-03-06T21:58:44.185Z,10.10
2023-03-06T22:01:13.716Z,10.10
2023-03-06T22:03:41.780Z,10.10
2023-03-06T22:06:13.062Z,10.00
2023-03-06T22:08:41.697Z,10.00
2023-03-06T22:11:10.854Z,9.90
2023-03-06T22:13:39.421Z,9.90
2023-03-06T22:16:08.403Z,9.90
2023-03-06T22:18:37.508Z,9.90
2023-03-06T22:21:09.605Z,9.80
2023-03-06T22:23:40.290Z,9.80
2023-03-06T22:26:11.224Z,9.70
2023-03-06T22:28:39.786Z,9.70
2023-03-06T22:31:09.674Z,9.70
2023-03-06T22:33:38.259Z,9.70
2023-03-06T22:36:08.451Z,9.60
2023-03-06T22:38:39.532Z,9.60
2023-03-06T22:41:09.222Z,9.50
2023-03-06T22:43:37.681Z,9.50
2023-03-06T22:46:07.010Z,9.50
2023-03-06T22:48:35.365Z,9.50
2023-03-06T22:51:04.678Z,9.40
2023-03-06T22:53:33.661Z,9.40
2023-03-06T22:56:04.701Z,9.40
2023-03-06T22:58:37.033Z,9.30
2023-03-06T23:01:07.193Z,9.30
2023-03-06T23:03:36.632Z,9.30
2023-03-06T23:06:08.394Z,9.30
2023-03-06T23:08:36.839Z,9.30
2023-03-06T23:11:09.948Z,9.20
2023-03-06T23:13:38.294Z,9.20
2023-03-06T23:16:07.578Z,9.20
2023-03-06T23:18:36.232Z,9.20
2023-03-06T23:21:07.814Z,9.20
2023-03-06T23:23:36.050Z,9.20
2023-03-06T23:26:06.334Z,9.20
2023-03-06T23:28:35.908Z,9.20
2023-03-06T23:31:07.876Z,9.10
2023-03-06T23:33:36.940Z,9.10
2023-03-06T23:36:06.013Z,9.10
2023-03-06T23:38:34.495Z,9.10
2023-03-06T23:41:03.355Z,9.10
2023-03-06T23:43:32.882Z,9.00
2023-03-06T23:46:01.433Z,9.00
2023-03-06T23:48:29.874Z,9.00
2023-03-06T23:50:58.287Z,9.00
2023-03-06T23:53:26.704Z,9.00
2023-03-06T23:55:54.896Z,9.00
2023-03-06T23:58:22.947Z,9.00
